createdAt,value
2019-03-19T00:01:58.399Z,99.90
2019-03-19T00:04:27.727Z,99.90
2019-03-19T00:06:57.036Z,99.90
2019-03-19T00:09:26.293Z,99.90
2019-03-19T00:11:57.793Z,99.90
2019-03-19T00:14:26.607Z,99.90
2019-03-19T00:16:55.923Z,99.90
2019-03-19T00:19:25.194Z,99.90
2019-03-19T00:21:54.484Z,99.90
2019-03-19T00:24:23.759Z,99.90
2019-03-19T00:26:53.051Z,99.90
2019-03-19T00:29:22.327Z,99.90
2019-03-19T00:31:51.684Z,99.90
2019-03-19T00:34:20.949Z,99.90
2019-03-19T00:36:50.243Z,99.90
2019-03-19T00:39:19.526Z,99.90
2019-03-19T00:41:48.885Z,99.90
2019-03-19T00:44:18.710Z,99.90
2019-03-19T00:46:48.079Z,99.90
2019-03-19T00:49:17.349Z,99.90
2019-03-19T00:51:46.630Z,99.90
2019-03-19T00:54:15.900Z,99.90
2019-03-19T00:56:45.192Z,99.90
2019-03-19T00:59:14.470Z,99.90
2019-03-19T01:01:43.771Z,99.90
2019-03-19T01:04:13.024Z,99.90
2019-03-19T01:06:42.308Z,99.90
2019-03-19T01:09:11.568Z,99.90
2019-03-19T01:11:40.854Z,99.90
2019-03-19T01:14:10.145Z,99.90
2019-03-19T01:16:39.435Z,99.90
2019-03-19T01:19:08.710Z,99.90
2019-03-19T01:21:37.991Z,99.90
2019-03-19T01:24:07.261Z,99.90
2019-03-19T01:26:36.548Z,99.90
2019-03-19T01:29:05.824Z,99.90
2019-03-19T01:31:35.121Z,99.90
2019-03-19T01:34:04.394Z,99.90
2019-03-19T01:36:33.695Z,99.90
2019-03-19T01:39:03.174Z,99.90
2019-03-19T01:41:32.464Z,99.90
2019-03-19T01:44:01.724Z,99.90
2019-03-19T01:46:31.032Z,99.90
2019-03-19T01:49:00.323Z,99.90
2019-03-19T01:51:29.734Z,99.90
2019-03-19T01:53:59.062Z,99.90
2019-03-19T01:56:28.351Z,99.90
2019-03-19T01:58:57.626Z,99.90
2019-03-19T02:01:26.916Z,99.90
2019-03-19T02:03:56.196Z,99.90
2019-03-19T02:06:25.496Z,99.90
2019-03-19T02:08:54.762Z,99.90
2019-03-19T02:11:24.316Z,99.90
2019-03-19T02:13:53.588Z,99.90
2019-03-19T02:16:22.887Z,99.90
2019-03-19T02:18:52.229Z,99.90
2019-03-19T02:21:21.541Z,99.90
2019-03-19T02:23:50.821Z,99.90
2019-03-19T02:26:20.116Z,99.90
2019-03-19T02:28:49.395Z,99.90
2019-03-19T02:31:18.688Z,99.90
2019-03-19T02:33:48.120Z,99.90
2019-03-19T02:36:17.425Z,99.90
2019-03-19T02:38:46.749Z,99.90
2019-03-19T02:41:18.102Z,99.90
2019-03-19T02:43:47.416Z,99.90
2019-03-19T02:46:16.691Z,99.90
2019-03-19T02:48:45.978Z,99.90
2019-03-19T02:51:15.260Z,99.90
2019-03-19T02:53:44.529Z,99.90
2019-03-19T02:56:13.822Z,99.90
2019-03-19T02:58:43.094Z,99.90
2019-03-19T03:01:12.362Z,99.90
2019-03-19T03:03:41.712Z,99.90
2019-03-19T03:06:10.994Z,99.90
2019-03-19T03:08:40.245Z,99.90
2019-03-19T03:11:09.552Z,99.90
2019-03-19T03:13:38.910Z,99.90
2019-03-19T03:16:08.267Z,99.90
2019-03-19T03:18:37.530Z,99.90
2019-03-19T03:21:06.813Z,99.90
2019-03-19T03:23:36.093Z,99.90
2019-03-19T03:26:05.397Z,99.90
2019-03-19T03:28:34.652Z,99.90
2019-03-19T03:31:03.967Z,99.90
2019-03-19T03:33:33.218Z,99.90
2019-03-19T03:36:02.514Z,99.90
2019-03-19T03:38:31.792Z,99.90
2019-03-19T03:41:01.362Z,99.90
2019-03-19T03:43:30.665Z,99.90
2019-03-19T03:46:00.005Z,99.90
2019-03-19T03:48:29.289Z,99.90
2019-03-19T03:50:58.577Z,99.90
2019-03-19T03:53:28.009Z,99.90
2019-03-19T03:55:57.290Z,99.90
2019-03-19T03:58:26.576Z,99.90
2019-03-19T04:00:55.947Z,99.90
2019-03-19T04:03:25.229Z,99.90
2019-03-19T04:05:54.512Z,99.90
2019-03-19T04:08:23.791Z,99.90
2019-03-19T04:10:53.066Z,99.90
2019-03-19T04:13:22.420Z,99.90
2019-03-19T04:15:51.760Z,99.90
2019-03-19T04:18:21.042Z,99.90
2019-03-19T04:20:50.376Z,99.90
2019-03-19T04:23:19.665Z,99.90
2019-03-19T04:25:48.986Z,99.90
2019-03-19T04:28:18.260Z,99.90
2019-03-19T04:30:47.532Z,99.90
2019-03-19T04:33:16.805Z,99.90
2019-03-19T04:35:46.062Z,99.90
2019-03-19T04:38:15.344Z,99.90
2019-03-19T04:40:44.624Z,99.90
2019-03-19T04:43:13.928Z,99.90
2019-03-19T04:45:43.221Z,99.90
2019-03-19T04:48:12.511Z,99.90
2019-03-19T04:50:41.765Z,99.90
2019-03-19T04:53:11.044Z,99.90
2019-03-19T04:55:40.316Z,99.90
2019-03-19T04:58:09.660Z,99.90
2019-03-19T05:00:38.929Z,99.90
2019-03-19T05:03:08.222Z,99.90
2019-03-19T05:05:37.598Z,99.90
2019-03-19T05:08:06.950Z,99.90
2019-03-19T05:10:36.240Z,99.90
2019-03-19T05:13:05.530Z,99.90
2019-03-19T05:15:34.809Z,99.90
2019-03-19T05:18:04.102Z,99.90
2019-03-19T05:20:33.464Z,99.90
2019-03-19T05:23:02.728Z,99.90
2019-03-19T05:25:32.007Z,99.90
2019-03-19T05:28:01.269Z,99.90
2019-03-19T05:30:30.555Z,99.90
2019-03-19T05:32:59.816Z,99.90
2019-03-19T05:35:29.110Z,99.90
2019-03-19T05:37:58.369Z,99.90
2019-03-19T05:40:27.654Z,99.90
2019-03-19T05:42:56.904Z,99.90
2019-03-19T05:45:26.202Z,99.90
2019-03-19T05:47:55.507Z,99.90
2019-03-19T05:50:24.847Z,99.90
2019-03-19T05:52:54.134Z,99.90
2019-03-19T05:55:23.392Z,99.90
2019-03-19T05:57:52.697Z,99.90
2019-03-19T06:00:22.905Z,99.90
2019-03-19T06:02:52.186Z,99.90
2019-03-19T06:05:21.628Z,99.90
2019-03-19T06:07:51.023Z,99.90
2019-03-19T06:10:20.288Z,99.90
2019-03-19T06:12:49.594Z,99.90
2019-03-19T06:15:19.036Z,99.90
2019-03-19T06:17:48.323Z,99.90
2019-03-19T06:20:17.626Z,99.90
2019-03-19T06:22:46.909Z,99.90
2019-03-19T06:25:16.188Z,99.90
2019-03-19T06:27:45.578Z,99.90
2019-03-19T06:30:16.633Z,99.90
2019-03-19T06:32:46.182Z,99.90
2019-03-19T06:35:15.467Z,99.90
2019-03-19T06:37:44.798Z,99.90
2019-03-19T06:40:14.662Z,99.90
2019-03-19T06:42:43.956Z,99.90
2019-03-19T06:45:14.142Z,99.90
2019-03-19T06:47:43.415Z,99.90
2019-03-19T06:50:13.204Z,99.90
2019-03-19T06:52:42.596Z,99.90
2019-03-19T06:55:12.796Z,99.90
2019-03-19T06:57:42.096Z,99.90
2019-03-19T07:00:14.864Z,99.90
2019-03-19T07:02:44.165Z,99.90
2019-03-19T07:05:13.795Z,99.90
2019-03-19T07:07:43.066Z,99.90
2019-03-19T07:10:12.915Z,99.00
2019-03-19T07:12:42.205Z,96.70
2019-03-19T07:15:13.030Z,95.00
2019-03-19T07:17:42.328Z,94.30
2019-03-19T07:20:13.291Z,92.00
2019-03-19T07:22:42.729Z,90.70
2019-03-19T07:25:12.133Z,87.90
2019-03-19T07:27:41.433Z,85.40
2019-03-19T07:30:13.891Z,83.30
2019-03-19T07:32:43.163Z,84.60
2019-03-19T07:35:12.457Z,85.30
2019-03-19T07:37:41.754Z,87.50
2019-03-19T07:40:11.491Z,86.30
2019-03-19T07:42:40.751Z,89.40
2019-03-19T07:45:12.647Z,87.30
2019-03-19T07:47:41.948Z,81.60
2019-03-19T07:50:12.885Z,82.10
2019-03-19T07:52:42.196Z,79.70
2019-03-19T07:55:11.528Z,79.90
2019-03-19T07:57:40.798Z,76.20
2019-03-19T08:00:11.719Z,72.60
2019-03-19T08:02:40.998Z,69.70
2019-03-19T08:05:10.434Z,67.90
2019-03-19T08:07:39.801Z,66.30
2019-03-19T08:10:09.917Z,65.10
2019-03-19T08:12:39.188Z,65.30
2019-03-19T08:15:10.464Z,65.10
2019-03-19T08:17:39.758Z,64.20
2019-03-19T08:20:10.069Z,65.30
2019-03-19T08:22:39.353Z,64.20
2019-03-19T08:25:08.970Z,63.80
2019-03-19T08:27:38.306Z,61.90
2019-03-19T08:30:10.123Z,58.30
2019-03-19T08:32:39.447Z,57.40
2019-03-19T08:35:08.863Z,58.00
2019-03-19T08:37:38.160Z,56.00
2019-03-19T08:40:08.949Z,55.50
2019-03-19T08:42:38.270Z,56.10
2019-03-19T08:45:09.103Z,54.90
2019-03-19T08:47:38.562Z,53.30
2019-03-19T08:50:09.745Z,52.50
2019-03-19T08:52:39.111Z,49.90
2019-03-19T08:55:08.408Z,50.90
2019-03-19T08:57:37.709Z,50.00
2019-03-19T09:00:09.294Z,48.50
2019-03-19T09:02:38.605Z,47.50
2019-03-19T09:05:08.695Z,47.30
2019-03-19T09:07:38.014Z,46.80
2019-03-19T09:10:08.023Z,46.60
2019-03-19T09:12:37.313Z,46.90
2019-03-19T09:15:08.058Z,46.70
2019-03-19T09:17:37.364Z,66.30
2019-03-19T09:20:08.582Z,58.50
2019-03-19T09:22:37.858Z,50.60
2019-03-19T09:25:07.208Z,49.40
2019-03-19T09:27:36.517Z,54.70
2019-03-19T09:30:06.800Z,48.20
2019-03-19T09:32:36.112Z,43.60
2019-03-19T09:35:05.699Z,44.50
2019-03-19T09:37:35.013Z,42.80
2019-03-19T09:40:05.006Z,41.80
2019-03-19T09:42:34.331Z,41.50
2019-03-19T09:45:04.250Z,40.90
2019-03-19T09:47:33.577Z,39.40
2019-03-19T09:50:02.896Z,39.50
2019-03-19T09:52:32.183Z,39.70
2019-03-19T09:55:01.468Z,37.80
2019-03-19T09:57:30.765Z,38.10
2019-03-19T10:00:00.165Z,37.20
2019-03-19T10:02:29.773Z,37.00
2019-03-19T10:04:59.053Z,37.50
2019-03-19T10:07:28.333Z,36.80
2019-03-19T10:09:57.653Z,35.80
2019-03-19T10:12:26.912Z,35.00
2019-03-19T10:14:56.219Z,33.90
2019-03-19T10:17:25.526Z,33.80
2019-03-19T10:19:54.839Z,35.20
2019-03-19T10:22:24.119Z,34.90
2019-03-19T10:24:53.430Z,36.00
2019-03-19T10:27:22.785Z,34.50
2019-03-19T10:29:52.088Z,37.10
2019-03-19T10:32:21.378Z,39.30
2019-03-19T10:34:50.765Z,39.90
2019-03-19T10:37:20.507Z,36.50
2019-03-19T10:39:49.790Z,35.00
2019-03-19T10:42:19.086Z,33.60
2019-03-19T10:44:48.436Z,34.50
2019-03-19T10:47:17.722Z,30.80
2019-03-19T10:49:47.002Z,31.90
2019-03-19T10:52:16.310Z,30.00
2019-03-19T10:54:45.590Z,30.60
2019-03-19T10:57:14.878Z,28.40
2019-03-19T10:59:49.182Z,29.90
2019-03-19T11:02:15.177Z,28.80
2019-03-19T11:04:44.436Z,29.10
2019-03-19T11:07:15.280Z,29.20
2019-03-19T11:09:44.813Z,27.90
2019-03-19T11:12:14.115Z,30.20
2019-03-19T11:14:43.399Z,29.10
2019-03-19T11:17:12.710Z,30.00
2019-03-19T11:19:42.059Z,29.50
2019-03-19T11:22:11.448Z,28.60
2019-03-19T11:24:40.734Z,28.70
2019-03-19T11:27:10.090Z,28.20
2019-03-19T11:29:39.392Z,29.70
2019-03-19T11:32:08.729Z,29.20
2019-03-19T11:34:38.022Z,27.40
2019-03-19T11:37:07.390Z,26.60
2019-03-19T11:39:36.662Z,26.30
2019-03-19T11:42:05.963Z,29.20
2019-03-19T11:44:35.245Z,27.30
2019-03-19T11:47:04.756Z,26.80
2019-03-19T11:49:34.040Z,26.30
2019-03-19T11:52:03.350Z,28.00
2019-03-19T11:54:32.629Z,28.90
2019-03-19T11:57:02.002Z,27.40
2019-03-19T11:59:31.303Z,27.90
2019-03-19T12:02:00.609Z,28.70
2019-03-19T12:04:29.985Z,26.90
2019-03-19T12:06:59.286Z,26.70
2019-03-19T12:09:28.577Z,27.60
2019-03-19T12:11:57.853Z,27.80
2019-03-19T12:14:27.127Z,28.60
2019-03-19T12:16:56.410Z,29.30
2019-03-19T12:19:25.692Z,29.40
2019-03-19T12:21:54.960Z,29.80
2019-03-19T12:24:24.293Z,31.10
2019-03-19T12:26:53.606Z,31.80
2019-03-19T12:29:22.979Z,30.80
2019-03-19T12:31:52.278Z,29.00
2019-03-19T12:34:21.570Z,28.80
2019-03-19T12:36:50.844Z,26.90
2019-03-19T12:39:20.129Z,27.40
2019-03-19T12:41:49.416Z,26.50
2019-03-19T12:44:18.846Z,26.50
2019-03-19T12:46:48.141Z,26.80
2019-03-19T12:49:17.421Z,26.90
2019-03-19T12:51:46.792Z,29.00
2019-03-19T12:54:16.137Z,29.20
2019-03-19T12:56:45.495Z,28.80
2019-03-19T12:59:20.122Z,28.40
2019-03-19T13:01:45.861Z,26.80
2019-03-19T13:04:15.250Z,26.90
2019-03-19T13:06:44.563Z,27.60
2019-03-19T13:09:13.869Z,27.70
2019-03-19T13:11:43.162Z,26.60
2019-03-19T13:14:12.457Z,27.10
2019-03-19T13:16:42.916Z,28.10
2019-03-19T13:19:12.367Z,29.40
2019-03-19T13:21:41.652Z,32.20
2019-03-19T13:24:10.968Z,30.10
2019-03-19T13:26:40.259Z,29.40
2019-03-19T13:29:09.577Z,31.20
2019-03-19T13:31:38.858Z,29.10
2019-03-19T13:34:08.142Z,29.00
2019-03-19T13:36:37.526Z,29.30
2019-03-19T13:39:08.934Z,30.00
2019-03-19T13:41:38.211Z,29.70
2019-03-19T13:44:07.497Z,29.40
2019-03-19T13:46:36.865Z,30.10
2019-03-19T13:49:06.130Z,30.90
2019-03-19T13:51:35.453Z,33.60
2019-03-19T13:54:04.731Z,32.20
2019-03-19T13:56:34.029Z,32.70
2019-03-19T13:59:03.300Z,32.20
2019-03-19T14:01:32.569Z,30.40
2019-03-19T14:04:01.860Z,31.20
2019-03-19T14:06:31.120Z,30.90
2019-03-19T14:09:00.404Z,31.50
2019-03-19T14:11:29.694Z,33.00
2019-03-19T14:13:58.981Z,30.50
2019-03-19T14:16:28.281Z,31.00
2019-03-19T14:18:57.565Z,33.90
2019-03-19T14:21:26.829Z,32.90
2019-03-19T14:23:56.132Z,33.60
2019-03-19T14:26:25.404Z,34.30
2019-03-19T14:28:54.708Z,35.10
2019-03-19T14:31:24.613Z,36.10
2019-03-19T14:33:53.891Z,37.40
2019-03-19T14:36:23.157Z,38.60
2019-03-19T14:38:52.488Z,38.90
2019-03-19T14:41:21.769Z,40.00
2019-03-19T14:43:51.069Z,42.70
2019-03-19T14:46:20.326Z,45.80
2019-03-19T14:48:49.620Z,46.70
2019-03-19T14:51:18.891Z,46.10
2019-03-19T14:53:48.242Z,46.70
2019-03-19T14:56:17.573Z,47.20
2019-03-19T14:58:46.877Z,48.90
2019-03-19T15:01:19.657Z,47.00
2019-03-19T15:03:47.230Z,47.50
2019-03-19T15:06:16.528Z,49.20
2019-03-19T15:08:45.826Z,46.80
2019-03-19T15:11:15.101Z,48.10
2019-03-19T15:13:44.385Z,51.00
2019-03-19T15:16:13.685Z,50.20
2019-03-19T15:18:42.985Z,47.90
2019-03-19T15:21:12.248Z,48.40
2019-03-19T15:23:42.052Z,49.30
2019-03-19T15:26:11.317Z,49.60
2019-03-19T15:28:40.585Z,49.30
2019-03-19T15:31:09.905Z,50.10
2019-03-19T15:33:39.199Z,50.00
2019-03-19T15:36:08.487Z,51.70
2019-03-19T15:38:37.739Z,51.50
2019-03-19T15:41:07.029Z,51.00
2019-03-19T15:43:36.333Z,51.20
2019-03-19T15:46:05.616Z,51.70
2019-03-19T15:48:35.185Z,52.50
2019-03-19T15:51:04.446Z,55.90
2019-03-19T15:53:33.727Z,53.10
2019-03-19T15:56:03.015Z,54.20
2019-03-19T15:58:32.313Z,53.60
2019-03-19T16:01:01.594Z,55.50
2019-03-19T16:03:30.888Z,55.20
2019-03-19T16:06:00.236Z,55.20
2019-03-19T16:08:29.536Z,55.70
2019-03-19T16:10:58.866Z,54.90
2019-03-19T16:13:28.140Z,56.50
2019-03-19T16:15:57.405Z,58.70
2019-03-19T16:18:27.620Z,60.90
2019-03-19T16:20:57.008Z,60.10
2019-03-19T16:23:26.294Z,59.40
2019-03-19T16:25:55.557Z,59.50
2019-03-19T16:28:24.868Z,60.70
2019-03-19T16:30:54.121Z,60.80
2019-03-19T16:33:23.475Z,61.20
2019-03-19T16:35:52.818Z,61.80
2019-03-19T16:38:22.072Z,63.80
2019-03-19T16:40:52.621Z,63.80
2019-03-19T16:43:21.916Z,64.60
2019-03-19T16:45:51.213Z,66.10
2019-03-19T16:48:20.469Z,66.50
2019-03-19T16:50:49.766Z,67.90
2019-03-19T16:53:19.038Z,69.00
2019-03-19T16:55:48.341Z,70.70
2019-03-19T16:58:17.613Z,71.90
2019-03-19T17:00:46.904Z,71.10
2019-03-19T17:03:16.185Z,72.30
2019-03-19T17:05:45.469Z,72.30
2019-03-19T17:08:14.821Z,74.10
2019-03-19T17:10:44.100Z,75.60
2019-03-19T17:13:13.365Z,76.20
2019-03-19T17:15:42.673Z,77.10
2019-03-19T17:18:11.928Z,77.80
2019-03-19T17:20:41.194Z,79.60
2019-03-19T17:23:10.473Z,81.20
2019-03-19T17:25:39.761Z,83.00
2019-03-19T17:28:09.044Z,84.30
2019-03-19T17:30:38.311Z,85.20
2019-03-19T17:33:07.604Z,86.50
2019-03-19T17:35:36.957Z,87.80
2019-03-19T17:38:06.256Z,89.80
2019-03-19T17:40:41.225Z,90.40
2019-03-19T17:43:06.718Z,91.00
2019-03-19T17:45:36.041Z,91.90
2019-03-19T17:48:15.446Z,92.50
2019-03-19T17:50:36.507Z,92.90
2019-03-19T17:53:05.822Z,93.60
2019-03-19T17:55:35.086Z,94.20
2019-03-19T17:58:04.473Z,95.10
2019-03-19T18:00:34.084Z,95.70
2019-03-19T18:03:03.364Z,96.10
2019-03-19T18:05:32.636Z,96.50
2019-03-19T18:08:02.129Z,97.20
2019-03-19T18:10:31.380Z,97.50
2019-03-19T18:13:00.656Z,98.10
2019-03-19T18:15:29.910Z,99.10
2019-03-19T18:17:59.309Z,99.90
2019-03-19T18:20:28.830Z,99.90
2019-03-19T18:22:58.117Z,99.90
2019-03-19T18:25:27.504Z,99.90
2019-03-19T18:27:56.945Z,99.90
2019-03-19T18:30:27.429Z,99.90
2019-03-19T18:32:57.109Z,99.90
2019-03-19T18:35:26.542Z,99.90
2019-03-19T18:37:55.796Z,99.90
2019-03-19T18:40:25.086Z,99.90
2019-03-19T18:42:54.358Z,99.90
2019-03-19T18:45:23.744Z,99.90
2019-03-19T18:47:53.019Z,99.90
2019-03-19T18:50:22.379Z,99.90
2019-03-19T18:52:51.753Z,99.90
2019-03-19T18:55:21.056Z,99.90
2019-03-19T18:57:50.442Z,99.90
2019-03-19T19:00:19.789Z,99.90
2019-03-19T19:02:50.788Z,99.90
2019-03-19T19:05:20.332Z,99.90
2019-03-19T19:07:49.620Z,99.90
2019-03-19T19:10:21.168Z,99.90
2019-03-19T19:12:50.236Z,99.90
2019-03-19T19:15:19.582Z,99.90
2019-03-19T19:17:48.890Z,99.90
2019-03-19T19:20:18.676Z,99.90
2019-03-19T19:22:48.037Z,99.90
2019-03-19T19:25:17.339Z,99.90
2019-03-19T19:27:46.708Z,99.90
2019-03-19T19:30:17.918Z,99.90
2019-03-19T19:32:47.429Z,99.90
2019-03-19T19:35:16.800Z,99.90
2019-03-19T19:37:46.112Z,99.90
2019-03-19T19:40:16.666Z,99.90
2019-03-19T19:42:46.199Z,99.90
2019-03-19T19:45:15.602Z,99.90
2019-03-19T19:47:44.888Z,99.90
2019-03-19T19:50:14.707Z,99.90
2019-03-19T19:52:44.073Z,99.90
2019-03-19T19:55:13.489Z,99.90
2019-03-19T19:57:42.774Z,99.90
2019-03-19T20:00:15.235Z,99.90
2019-03-19T20:02:44.686Z,99.90
2019-03-19T20:05:13.972Z,99.90
2019-03-19T20:07:43.389Z,99.90
2019-03-19T20:10:14.928Z,99.90
2019-03-19T20:12:44.216Z,99.90
2019-03-19T20:15:13.524Z,99.90
2019-03-19T20:17:42.880Z,99.90
2019-03-19T20:20:14.468Z,99.90
2019-03-19T20:22:44.801Z,99.90
2019-03-19T20:25:14.437Z,99.90
2019-03-19T20:27:43.692Z,99.90
2019-03-19T20:30:17.817Z,99.90
2019-03-19T20:32:47.189Z,99.90
2019-03-19T20:35:16.615Z,99.90
2019-03-19T20:37:45.884Z,99.90
2019-03-19T20:40:15.200Z,99.90
2019-03-19T20:42:44.478Z,99.90
2019-03-19T20:45:13.788Z,99.90
2019-03-19T20:47:43.089Z,99.90
2019-03-19T20:50:21.026Z,99.90
2019-03-19T20:52:50.308Z,99.90
2019-03-19T20:55:19.658Z,99.90
2019-03-19T20:57:49.043Z,99.90
2019-03-19T21:00:18.615Z,99.90
2019-03-19T21:02:47.984Z,99.90
2019-03-19T21:05:17.361Z,99.90
2019-03-19T21:07:46.744Z,99.90
2019-03-19T21:10:17.455Z,99.90
2019-03-19T21:12:46.742Z,99.90
2019-03-19T21:15:18.096Z,99.90
2019-03-19T21:17:47.642Z,99.90
2019-03-19T21:20:17.143Z,99.90
2019-03-19T21:22:46.527Z,99.90
2019-03-19T21:25:16.166Z,99.90
2019-03-19T21:27:46.054Z,99.90
2019-03-19T21:30:15.911Z,99.90
2019-03-19T21:32:46.097Z,99.90
2019-03-19T21:35:16.913Z,99.90
2019-03-19T21:37:46.553Z,99.90
2019-03-19T21:40:16.167Z,99.90
2019-03-19T21:42:46.082Z,99.90
2019-03-19T21:45:15.887Z,99.90
2019-03-19T21:47:45.176Z,99.90
2019-03-19T21:50:14.957Z,99.90
2019-03-19T21:52:44.220Z,99.90
2019-03-19T21:55:16.926Z,99.90
2019-03-19T21:57:46.722Z,99.90
2019-03-19T22:00:17.356Z,99.90
2019-03-19T22:02:49.799Z,99.90
2019-03-19T22:05:19.201Z,99.90
2019-03-19T22:07:48.473Z,99.90
2019-03-19T22:10:17.764Z,99.90
2019-03-19T22:12:49.118Z,99.90
2019-03-19T22:15:18.376Z,99.90
2019-03-19T22:17:47.682Z,99.90
2019-03-19T22:20:17.048Z,99.90
2019-03-19T22:22:46.394Z,99.90
2019-03-19T22:25:15.776Z,99.90
2019-03-19T22:27:45.140Z,99.90
2019-03-19T22:30:15.694Z,99.90
2019-03-19T22:32:44.954Z,99.90
2019-03-19T22:35:14.339Z,99.90
2019-03-19T22:37:43.621Z,99.90
2019-03-19T22:40:14.233Z,99.90
2019-03-19T22:42:43.484Z,99.90
2019-03-19T22:45:13.837Z,99.90
2019-03-19T22:47:43.309Z,99.90
2019-03-19T22:50:13.342Z,99.90
2019-03-19T22:52:42.668Z,99.90
2019-03-19T22:55:12.029Z,99.90
2019-03-19T22:57:41.320Z,99.90
2019-03-19T23:00:18.712Z,99.90
2019-03-19T23:02:48.018Z,99.90
2019-03-19T23:05:17.337Z,99.90
2019-03-19T23:07:46.696Z,99.90
2019-03-19T23:10:15.978Z,99.90
2019-03-19T23:12:45.291Z,99.90
2019-03-19T23:15:14.873Z,99.90
2019-03-19T23:22:41.799Z,99.90
2019-03-19T23:25:11.911Z,99.90
2019-03-19T23:27:41.213Z,99.90
2019-03-19T23:30:11.027Z,99.90
2019-03-19T23:32:40.303Z,99.90
2019-03-19T23:35:09.614Z,99.90
2019-03-19T23:37:38.892Z,99.90
2019-03-19T23:40:08.593Z,99.90
2019-03-19T23:42:37.870Z,99.90
2019-03-19T23:45:07.552Z,99.90
2019-03-19T23:47:36.824Z,99.90
2019-03-19T23:50:07.643Z,99.90
2019-03-19T23:52:36.960Z,99.90
2019-03-19T23:55:06.758Z,99.90
2019-03-19T23:57:36.023Z,99.90
